createdAt,value
2018-07-04T00:02:15.705Z,83.80
2018-07-04T00:04:55.460Z,83.90
2018-07-04T00:07:35.152Z,83.90
2018-07-04T00:10:14.844Z,83.80
2018-07-04T00:12:54.541Z,83.70
2018-07-04T00:15:34.100Z,83.60
2018-07-04T00:18:13.965Z,84.30
2018-07-04T00:23:26.871Z,83.70
2018-07-04T00:26:06.675Z,84.10
2018-07-04T00:28:46.540Z,84.20
2018-07-04T00:31:26.217Z,84.80
2018-07-04T00:34:05.803Z,84.30
2018-07-04T00:36:45.496Z,84.10
2018-07-04T00:39:25.080Z,84.10
2018-07-04T00:44:39.085Z,84.20
2018-07-04T00:47:18.795Z,84.30
2018-07-04T00:49:58.396Z,84.50
2018-07-04T00:52:38.005Z,84.70
2018-07-04T00:55:17.556Z,85.00
2018-07-04T01:03:17.053Z,84.90
2018-07-04T01:08:30.209Z,85.80
2018-07-04T01:11:09.924Z,86.10
2018-07-04T01:13:49.655Z,86.20
2018-07-04T01:16:29.267Z,86.60
2018-07-04T01:19:08.800Z,87.00
2018-07-04T01:21:48.499Z,87.30
2018-07-04T01:24:28.119Z,87.50
2018-07-04T01:27:07.602Z,87.60
2018-07-04T01:29:47.335Z,87.90
2018-07-04T01:32:26.927Z,88.70
2018-07-04T01:35:06.576Z,88.40
2018-07-04T01:37:46.331Z,88.70
2018-07-04T01:40:26.066Z,88.80
2018-07-04T01:43:05.560Z,89.20
2018-07-04T01:45:45.252Z,89.50
2018-07-04T01:48:24.721Z,89.90
2018-07-04T01:51:04.428Z,89.80
2018-07-04T01:56:17.711Z,90.00
2018-07-04T01:58:57.218Z,90.20
2018-07-04T02:01:36.864Z,90.30
2018-07-04T02:04:16.680Z,90.40
2018-07-04T02:06:56.336Z,90.50
2018-07-04T02:09:35.917Z,90.70
2018-07-04T02:12:15.535Z,90.80
2018-07-04T02:14:55.256Z,91.00
2018-07-04T02:17:34.858Z,91.20
2018-07-04T02:22:47.949Z,91.30
2018-07-04T02:25:27.495Z,91.40
2018-07-04T02:28:07.232Z,91.40
2018-07-04T02:30:46.994Z,91.50
2018-07-04T02:36:00.333Z,91.70
2018-07-04T02:38:39.870Z,91.70
2018-07-04T02:41:19.560Z,91.90
2018-07-04T02:43:59.070Z,91.90
2018-07-04T02:46:39.089Z,92.00
2018-07-04T02:49:19.656Z,92.10
2018-07-04T02:54:32.792Z,92.20
2018-07-04T02:57:12.556Z,92.10
2018-07-04T02:59:52.140Z,92.10
2018-07-04T03:02:32.287Z,92.10
2018-07-04T03:07:45.516Z,92.30
2018-07-04T03:10:25.220Z,92.40
2018-07-04T03:15:38.629Z,93.00
2018-07-04T03:18:18.456Z,92.70
2018-07-04T03:20:58.100Z,92.80
2018-07-04T03:23:37.623Z,92.80
2018-07-04T03:26:17.332Z,92.60
2018-07-04T03:28:57.156Z,93.00
2018-07-04T03:31:36.941Z,93.00
2018-07-04T03:34:16.655Z,93.10
2018-07-04T03:36:56.124Z,93.10
2018-07-04T03:39:35.737Z,93.20
2018-07-04T03:42:15.407Z,93.20
2018-07-04T03:44:55.089Z,93.20
2018-07-04T03:47:34.579Z,93.20
2018-07-04T03:52:47.839Z,93.20
2018-07-04T03:55:27.372Z,93.10
2018-07-04T03:58:06.893Z,93.00
2018-07-04T04:00:46.736Z,92.80
2018-07-04T04:03:26.448Z,92.70
2018-07-04T04:06:06.012Z,92.60
2018-07-04T04:08:45.691Z,92.50
2018-07-04T04:11:25.348Z,92.40
2018-07-04T04:14:04.913Z,92.40
2018-07-04T04:16:44.552Z,92.30
2018-07-04T04:19:28.496Z,92.10
2018-07-04T04:22:07.820Z,92.30
2018-07-04T04:24:47.572Z,91.80
2018-07-04T04:27:27.177Z,91.60
2018-07-04T04:30:06.863Z,91.50
2018-07-04T04:32:46.353Z,91.20
2018-07-04T04:35:26.017Z,91.00
2018-07-04T04:38:05.580Z,90.80
2018-07-04T04:40:45.515Z,90.70
2018-07-04T04:43:25.173Z,90.80
2018-07-04T04:46:04.724Z,90.40
2018-07-04T04:48:44.283Z,90.10
2018-07-04T04:51:24.010Z,89.90
2018-07-04T04:54:03.648Z,89.20
2018-07-04T04:56:43.352Z,88.60
2018-07-04T04:59:23.236Z,87.90
2018-07-04T05:02:02.941Z,87.10
2018-07-04T05:04:42.579Z,86.20
2018-07-04T05:07:22.181Z,85.60
2018-07-04T05:10:01.760Z,85.30
2018-07-04T05:12:41.296Z,85.20
2018-07-04T05:15:20.999Z,84.30
2018-07-04T05:18:00.507Z,84.00
2018-07-04T05:20:40.195Z,83.30
2018-07-04T05:23:19.896Z,83.10
2018-07-04T05:25:59.600Z,83.00
2018-07-04T05:28:39.148Z,83.50
2018-07-04T05:31:18.884Z,83.60
2018-07-04T05:33:58.596Z,84.00
2018-07-04T05:36:38.093Z,84.40
2018-07-04T05:39:17.664Z,84.60
2018-07-04T05:41:57.159Z,84.40
2018-07-04T05:44:36.844Z,84.30
2018-07-04T05:47:16.240Z,84.00
2018-07-04T05:49:55.817Z,83.60
2018-07-04T05:52:35.532Z,83.30
2018-07-04T05:55:15.157Z,82.50
2018-07-04T05:57:54.726Z,82.00
2018-07-04T06:00:34.286Z,81.60
2018-07-04T06:03:13.976Z,81.10
2018-07-04T06:05:53.539Z,80.20
2018-07-04T06:08:33.174Z,79.70
2018-07-04T06:11:12.609Z,79.10
2018-07-04T06:13:52.264Z,78.70
2018-07-04T06:16:31.730Z,78.40
2018-07-04T06:19:11.760Z,78.20
2018-07-04T06:21:51.575Z,77.80
2018-07-04T06:24:31.348Z,77.50
2018-07-04T06:27:11.100Z,76.90
2018-07-04T06:29:50.693Z,76.30
2018-07-04T06:32:30.459Z,75.60
2018-07-04T06:35:10.013Z,75.10
2018-07-04T06:37:39.440Z,74.40
2018-07-04T06:40:07.036Z,74.00
2018-07-04T06:42:35.005Z,73.80
2018-07-04T06:45:02.220Z,73.40
2018-07-04T06:47:29.473Z,72.30
2018-07-04T06:49:56.670Z,70.80
2018-07-04T06:52:23.862Z,70.10
2018-07-04T06:54:51.560Z,69.80
2018-07-04T06:57:19.848Z,69.00
2018-07-04T06:59:47.428Z,68.30
2018-07-04T07:02:15.620Z,68.60
2018-07-04T07:04:56.386Z,68.10
2018-07-04T07:07:36.013Z,67.40
2018-07-04T07:10:15.552Z,66.70
2018-07-04T07:12:55.188Z,64.90
2018-07-04T07:15:34.892Z,63.90
2018-07-04T07:18:15.149Z,63.30
2018-07-04T07:20:54.560Z,63.30
2018-07-04T07:23:34.248Z,64.20
2018-07-04T07:26:13.944Z,62.50
2018-07-04T07:28:53.589Z,61.80
2018-07-04T07:34:07.038Z,61.80
2018-07-04T07:36:47.044Z,60.90
2018-07-04T07:39:26.523Z,60.90
2018-07-04T07:42:06.560Z,60.50
2018-07-04T07:44:46.688Z,59.60
2018-07-04T07:47:26.372Z,58.80
2018-07-04T07:50:06.056Z,58.00
2018-07-04T07:52:45.707Z,57.30
2018-07-04T07:55:25.366Z,56.90
2018-07-04T07:58:04.877Z,56.30
2018-07-04T08:00:44.536Z,55.70
2018-07-04T08:03:24.297Z,55.60
2018-07-04T08:06:03.861Z,55.30
2018-07-04T08:08:43.500Z,55.50
2018-07-04T08:11:22.964Z,55.30
2018-07-04T08:14:02.476Z,54.90
2018-07-04T08:16:41.981Z,54.90
2018-07-04T08:19:21.642Z,55.00
2018-07-04T08:22:01.561Z,55.00
2018-07-04T08:24:41.089Z,55.20
2018-07-04T08:27:20.652Z,55.10
2018-07-04T08:30:00.209Z,54.90
2018-07-04T08:32:39.920Z,55.10
2018-07-04T08:35:19.329Z,54.80
2018-07-04T08:37:58.964Z,54.60
2018-07-04T08:40:38.640Z,54.70
2018-07-04T08:43:18.201Z,54.70
2018-07-04T08:45:57.692Z,54.60
2018-07-04T08:48:37.532Z,54.20
2018-07-04T08:51:17.277Z,54.00
2018-07-04T08:53:56.792Z,53.80
2018-07-04T08:56:36.284Z,53.70
2018-07-04T08:59:15.847Z,53.50
2018-07-04T09:01:55.648Z,53.40
2018-07-04T09:04:35.227Z,53.30
2018-07-04T09:07:14.825Z,53.90
2018-07-04T09:09:54.462Z,53.70
2018-07-04T09:12:34.032Z,53.70
2018-07-04T09:17:47.209Z,52.60
2018-07-04T09:20:26.700Z,52.00
2018-07-04T09:23:06.412Z,51.70
2018-07-04T09:25:46.022Z,51.50
2018-07-04T09:28:25.715Z,50.90
2018-07-04T09:31:05.387Z,50.40
2018-07-04T09:33:45.027Z,50.00
2018-07-04T09:36:24.720Z,49.80
2018-07-04T09:39:04.736Z,49.60
2018-07-04T09:41:44.404Z,49.40
2018-07-04T09:44:24.068Z,49.30
2018-07-04T09:47:03.728Z,49.40
2018-07-04T09:49:43.474Z,49.50
2018-07-04T09:52:23.017Z,49.50
2018-07-04T09:55:02.541Z,49.50
2018-07-04T09:57:42.012Z,49.70
2018-07-04T10:00:27.605Z,49.50
2018-07-04T10:03:07.900Z,49.50
2018-07-04T10:05:47.537Z,49.80
2018-07-04T10:08:27.956Z,49.80
2018-07-04T10:11:07.564Z,49.70
2018-07-04T10:13:47.072Z,50.20
2018-07-04T10:16:26.684Z,51.10
2018-07-04T10:19:06.248Z,52.50
2018-07-04T10:21:45.941Z,53.50
2018-07-04T10:24:26.356Z,54.30
2018-07-04T10:27:05.952Z,54.90
2018-07-04T10:29:45.484Z,55.60
2018-07-04T10:32:25.048Z,56.00
2018-07-04T10:35:04.704Z,56.70
2018-07-04T10:37:44.255Z,58.10
2018-07-04T10:40:23.855Z,60.60
2018-07-04T10:43:03.472Z,61.60
2018-07-04T10:45:43.256Z,62.40
2018-07-04T10:48:22.992Z,64.10
2018-07-04T10:53:36.153Z,67.30
2018-07-04T10:56:15.656Z,68.60
2018-07-04T10:58:55.380Z,70.30
2018-07-04T11:01:35.149Z,71.40
2018-07-04T11:04:14.774Z,72.60
2018-07-04T11:06:54.382Z,72.30
2018-07-04T11:09:33.928Z,72.10
2018-07-04T11:12:13.648Z,72.50
2018-07-04T11:14:53.194Z,73.20
2018-07-04T11:17:32.809Z,74.00
2018-07-04T11:20:12.453Z,74.60
2018-07-04T11:22:52.041Z,75.00
2018-07-04T11:25:31.595Z,75.20
2018-07-04T11:28:12.240Z,75.10
2018-07-04T11:30:52.348Z,75.00
2018-07-04T11:33:31.892Z,74.80
2018-07-04T11:36:11.780Z,74.70
2018-07-04T11:38:51.457Z,74.60
2018-07-04T11:41:30.776Z,74.10
2018-07-04T11:44:10.440Z,73.90
2018-07-04T11:49:05.201Z,72.70
2018-07-04T11:51:32.397Z,72.10
2018-07-04T11:53:59.586Z,72.20
2018-07-04T11:56:26.856Z,70.50
2018-07-04T11:58:54.033Z,70.70
2018-07-04T12:01:21.209Z,69.30
2018-07-04T12:04:00.724Z,68.50
2018-07-04T12:06:40.417Z,67.70
2018-07-04T12:11:35.121Z,66.00
2018-07-04T12:14:02.324Z,65.30
2018-07-04T12:16:29.528Z,64.90
2018-07-04T12:18:56.723Z,64.40
2018-07-04T12:21:23.929Z,64.30
2018-07-04T12:23:51.141Z,63.50
2018-07-04T12:26:18.336Z,63.10
2018-07-04T12:28:45.606Z,62.90
2018-07-04T12:31:12.769Z,62.30
2018-07-04T12:33:39.964Z,62.10
2018-07-04T12:36:07.168Z,61.70
2018-07-04T12:38:34.344Z,61.20
2018-07-04T12:41:01.544Z,61.10
2018-07-04T12:43:28.793Z,60.90
2018-07-04T12:45:55.965Z,60.50
2018-07-04T12:48:23.165Z,60.40
2018-07-04T12:50:50.472Z,60.30
2018-07-04T12:53:17.643Z,60.30
2018-07-04T12:55:57.260Z,60.20
2018-07-04T12:58:36.849Z,59.40
2018-07-04T13:01:16.476Z,58.80
2018-07-04T13:03:56.065Z,58.50
2018-07-04T13:06:35.579Z,58.50
2018-07-04T13:09:15.282Z,57.90
2018-07-04T13:11:54.988Z,57.20
2018-07-04T13:17:08.408Z,55.80
2018-07-04T13:19:47.963Z,56.30
2018-07-04T13:22:27.521Z,56.20
2018-07-04T13:25:07.249Z,55.40
2018-07-04T13:27:46.760Z,54.20
2018-07-04T13:30:26.753Z,53.40
2018-07-04T13:33:06.376Z,52.00
2018-07-04T13:35:46.104Z,51.80
2018-07-04T13:38:25.777Z,51.90
2018-07-04T13:41:05.488Z,51.90
2018-07-04T13:43:45.175Z,51.10
2018-07-04T13:46:24.777Z,50.80
2018-07-04T13:49:04.249Z,50.20
2018-07-04T13:51:43.777Z,49.50
2018-07-04T13:54:23.377Z,49.90
2018-07-04T13:57:03.310Z,50.20
2018-07-04T13:59:42.708Z,49.60
2018-07-04T14:02:22.283Z,49.20
2018-07-04T14:05:02.264Z,48.10
2018-07-04T14:07:41.992Z,47.10
2018-07-04T14:10:21.741Z,47.10
2018-07-04T14:13:01.365Z,46.40
2018-07-04T14:15:40.985Z,46.00
2018-07-04T14:18:20.668Z,46.20
2018-07-04T14:21:00.120Z,46.50
2018-07-04T14:26:13.889Z,47.30
2018-07-04T14:28:53.609Z,48.10
2018-07-04T14:31:33.098Z,47.90
2018-07-04T14:34:12.759Z,48.20
2018-07-04T14:36:52.428Z,49.30
2018-07-04T14:39:31.856Z,49.80
2018-07-04T14:42:11.996Z,50.30
2018-07-04T14:44:51.717Z,50.20
2018-07-04T14:47:31.416Z,50.80
2018-07-04T14:50:10.984Z,51.30
2018-07-04T14:52:50.536Z,51.30
2018-07-04T14:55:30.193Z,50.80
2018-07-04T14:58:09.863Z,53.40
2018-07-04T15:00:49.316Z,56.50
2018-07-04T15:03:29.020Z,62.00
2018-07-04T15:06:08.575Z,68.40
2018-07-04T15:08:48.097Z,70.10
2018-07-04T15:11:27.800Z,70.20
2018-07-04T15:14:07.376Z,70.00
2018-07-04T15:16:46.862Z,70.00
2018-07-04T15:19:26.353Z,70.70
2018-07-04T15:22:06.191Z,69.40
2018-07-04T15:27:19.873Z,65.70
2018-07-04T15:29:59.327Z,64.00
2018-07-04T15:32:39.124Z,62.30
2018-07-04T15:35:18.804Z,60.00
2018-07-04T15:37:58.383Z,58.20
2018-07-04T15:40:38.440Z,56.60
2018-07-04T15:43:18.224Z,55.40
2018-07-04T15:45:57.800Z,53.90
2018-07-04T15:48:37.300Z,52.80
2018-07-04T15:51:16.759Z,51.90
2018-07-04T15:53:56.312Z,50.80
2018-07-04T15:56:35.844Z,49.40
2018-07-04T15:59:15.448Z,48.10
2018-07-04T16:01:55.017Z,47.20
2018-07-04T16:04:34.580Z,45.60
2018-07-04T16:07:14.289Z,43.70
2018-07-04T16:09:53.924Z,41.90
2018-07-04T16:12:33.607Z,40.60
2018-07-04T16:15:13.069Z,40.80
2018-07-04T16:17:52.727Z,41.90
2018-07-04T16:20:32.452Z,43.00
2018-07-04T16:23:12.077Z,43.90
2018-07-04T16:25:51.772Z,45.50
2018-07-04T16:28:31.353Z,46.20
2018-07-04T16:31:10.861Z,47.40
2018-07-04T16:33:50.480Z,48.80
2018-07-04T16:36:30.091Z,50.20
2018-07-04T16:39:09.821Z,50.60
2018-07-04T16:41:49.396Z,51.20
2018-07-04T16:44:29.063Z,51.50
2018-07-04T16:47:08.661Z,52.20
2018-07-04T16:49:48.140Z,51.70
2018-07-04T16:52:27.675Z,52.10
2018-07-04T16:55:07.283Z,52.40
2018-07-04T16:57:46.732Z,52.60
2018-07-04T17:00:26.416Z,52.60
2018-07-04T17:03:05.932Z,52.30
2018-07-04T17:05:45.368Z,51.80
2018-07-04T17:08:25.016Z,51.90
2018-07-04T17:11:04.473Z,52.50
2018-07-04T17:13:44.124Z,52.40
2018-07-04T17:16:23.737Z,52.40
2018-07-04T17:19:03.356Z,52.60
2018-07-04T17:21:42.921Z,52.30
2018-07-04T17:24:22.374Z,52.20
2018-07-04T17:27:01.909Z,52.50
2018-07-04T17:29:41.601Z,53.00
2018-07-04T17:32:21.320Z,53.10
2018-07-04T17:35:00.856Z,53.10
2018-07-04T17:37:40.320Z,53.30
2018-07-04T17:40:20.044Z,53.60
2018-07-04T17:42:59.626Z,54.00
2018-07-04T17:45:39.250Z,54.80
2018-07-04T17:48:18.686Z,54.80
2018-07-04T17:50:58.411Z,55.00
2018-07-04T17:53:38.196Z,55.00
2018-07-04T17:56:17.728Z,55.10
2018-07-04T17:58:57.300Z,55.40
2018-07-04T18:01:36.842Z,55.90
2018-07-04T18:04:16.373Z,56.20
2018-07-04T18:06:56.081Z,56.90
2018-07-04T18:09:35.491Z,56.40
2018-07-04T18:12:15.180Z,56.90
2018-07-04T18:14:54.939Z,57.40
2018-07-04T18:20:07.949Z,57.80
2018-07-04T18:22:47.561Z,58.30
2018-07-04T18:25:27.084Z,59.00
2018-07-04T18:28:06.533Z,59.10
2018-07-04T18:33:19.648Z,61.20
2018-07-04T18:35:59.168Z,62.60
2018-07-04T18:38:38.856Z,64.10
2018-07-04T18:41:18.564Z,65.30
2018-07-04T18:46:31.608Z,67.40
2018-07-04T18:49:11.308Z,68.30
2018-07-04T18:51:50.912Z,69.60
2018-07-04T18:54:30.580Z,70.80
2018-07-04T18:57:10.265Z,72.10
2018-07-04T18:59:49.839Z,73.00
2018-07-04T19:02:29.504Z,73.80
2018-07-04T19:05:09.049Z,74.20
2018-07-04T19:07:48.748Z,74.50
2018-07-04T19:10:28.296Z,74.90
2018-07-04T19:13:07.888Z,75.40
2018-07-04T19:15:47.608Z,75.90
2018-07-04T19:18:27.228Z,76.50
2018-07-04T19:21:06.819Z,77.00
2018-07-04T19:23:46.500Z,77.50
2018-07-04T19:26:26.016Z,78.00
2018-07-04T19:29:05.669Z,79.00
2018-07-04T19:31:45.113Z,79.90
2018-07-04T19:34:24.800Z,80.80
2018-07-04T19:37:04.477Z,81.80
2018-07-04T19:39:44.015Z,82.50
2018-07-04T19:42:23.626Z,83.10
2018-07-04T19:45:03.228Z,83.70
2018-07-04T19:47:43.016Z,84.60
2018-07-04T19:50:22.709Z,86.10
2018-07-04T19:53:02.280Z,86.90
2018-07-04T19:55:41.971Z,87.30
2018-07-04T19:58:21.492Z,87.60
2018-07-04T20:01:01.088Z,88.20
2018-07-04T20:03:40.727Z,88.50
2018-07-04T20:06:20.433Z,89.10
2018-07-04T20:08:59.988Z,89.80
2018-07-04T20:11:39.774Z,90.10
2018-07-04T20:14:19.456Z,90.30
2018-07-04T20:16:59.047Z,90.40
2018-07-04T20:19:38.620Z,90.50
2018-07-04T20:24:51.836Z,90.70
2018-07-04T20:27:31.529Z,90.80
2018-07-04T20:30:11.081Z,91.00
2018-07-04T20:32:50.732Z,91.60
2018-07-04T20:35:30.252Z,91.50
2018-07-04T20:38:09.836Z,91.70
2018-07-04T20:40:49.459Z,91.70
2018-07-04T20:43:29.225Z,91.80
2018-07-04T20:46:08.552Z,91.80
2018-07-04T20:48:48.302Z,92.00
2018-07-04T20:51:27.924Z,92.00
2018-07-04T20:54:07.445Z,92.80
2018-07-04T20:56:47.024Z,92.60
2018-07-04T20:59:26.728Z,92.60
2018-07-04T21:02:06.269Z,92.50
2018-07-04T21:04:46.073Z,92.40
2018-07-04T21:07:25.604Z,92.30
2018-07-04T21:10:05.414Z,92.30
2018-07-04T21:12:44.807Z,92.40
2018-07-04T21:15:24.437Z,92.40
2018-07-04T21:18:04.120Z,92.50
2018-07-04T21:20:44.040Z,92.60
2018-07-04T21:23:23.653Z,92.60
2018-07-04T21:26:03.341Z,92.70
2018-07-04T21:28:42.872Z,92.70
2018-07-04T21:31:22.388Z,92.90
2018-07-04T21:34:02.086Z,93.10
2018-07-04T21:36:41.740Z,93.10
2018-07-04T21:39:21.295Z,93.10
2018-07-04T21:42:01.056Z,93.40
2018-07-04T21:44:40.761Z,93.50
2018-07-04T21:47:20.333Z,93.40
2018-07-04T21:49:59.813Z,93.60
2018-07-04T21:52:39.495Z,93.70
2018-07-04T21:55:18.981Z,93.80
2018-07-04T21:57:58.816Z,93.90
2018-07-04T22:00:38.472Z,94.10
2018-07-04T22:03:17.997Z,94.20
2018-07-04T22:05:57.741Z,94.40
2018-07-04T22:08:37.413Z,94.50
2018-07-04T22:11:17.061Z,95.00
2018-07-04T22:13:56.754Z,94.80
2018-07-04T22:16:36.406Z,95.20
2018-07-04T22:19:21.572Z,94.90
2018-07-04T22:22:01.117Z,95.00
2018-07-04T22:24:40.887Z,94.90
2018-07-04T22:44:54.297Z,94.70
2018-07-04T22:47:34.333Z,94.70
2018-07-04T22:50:14.055Z,94.70
2018-07-04T22:52:53.667Z,94.90
2018-07-04T22:55:33.307Z,95.00
2018-07-04T22:58:13.264Z,95.10
2018-07-04T23:00:52.909Z,95.20
2018-07-04T23:03:32.788Z,95.30
2018-07-04T23:06:12.938Z,95.30
2018-07-04T23:08:52.613Z,95.40
2018-07-04T23:11:32.888Z,95.40
2018-07-04T23:14:12.742Z,95.50
2018-07-04T23:16:52.695Z,95.60
2018-07-04T23:19:32.877Z,95.60
2018-07-04T23:22:12.387Z,95.70
2018-07-04T23:24:52.205Z,95.80
2018-07-04T23:27:31.825Z,95.80
2018-07-04T23:30:11.700Z,95.80
2018-07-04T23:32:51.534Z,95.80
2018-07-04T23:38:05.131Z,96.00
2018-07-04T23:40:45.000Z,96.10
2018-07-04T23:43:24.744Z,96.10
2018-07-04T23:46:04.625Z,96.10
2018-07-04T23:48:44.327Z,96.10
2018-07-04T23:51:24.403Z,96.10
2018-07-04T23:54:03.985Z,96.30
2018-07-04T23:56:43.755Z,96.20
2018-07-04T23:59:23.370Z,96.20
